Time;durP1;ratioP1;P1;durP2;ratioP2;P2;SDS_P1;SDS_P2;PMS_P1;PMS_P2;Temp;Humidity;BMP_temperature;BMP_pressure;BME280_temperature;BME280_humidity;BME280_pressure;Samples;Min_cycle;Max_cycle;Signal;HPM_P1;HPM_P2
2021/03/03 00:02:23;;;;;;;19.63;14.67;;;6.80;99.90;;;;;;5094122;28;20161;-64
2021/03/03 00:04:49;;;;;;;18.80;14.07;;;6.80;99.90;;;;;;5093862;28;20157;-64
2021/03/03 00:07:15;;;;;;;18.90;14.60;;;6.70;99.90;;;;;;5092968;28;20211;-64
2021/03/03 00:09:41;;;;;;;22.60;14.90;;;6.70;99.90;;;;;;5093794;28;20163;-65
2021/03/03 00:12:08;;;;;;;24.23;15.90;;;6.70;99.90;;;;;;5092545;28;20544;-64
2021/03/03 00:14:33;;;;;;;18.00;13.47;;;6.70;99.90;;;;;;5093867;28;20477;-65
2021/03/03 00:16:59;;;;;;;20.73;13.63;;;6.70;99.90;;;;;;5093456;28;20429;-64
2021/03/03 00:19:24;;;;;;;20.33;13.70;;;6.70;99.90;;;;;;5093647;28;20243;-64
2021/03/03 00:21:50;;;;;;;18.93;13.87;;;6.70;99.90;;;;;;5076106;28;20222;-64
2021/03/03 00:24:15;;;;;;;19.10;14.70;;;6.70;99.90;;;;;;5073833;28;20164;-64
2021/03/03 00:26:41;;;;;;;21.40;13.87;;;6.70;99.90;;;;;;5073292;28;20168;-65
2021/03/03 00:29:06;;;;;;;22.07;15.20;;;6.70;99.90;;;;;;5073267;28;20191;-64
2021/03/03 00:31:32;;;;;;;17.63;13.83;;;6.70;99.90;;;;;;5073141;28;20662;-65
2021/03/03 00:33:57;;;;;;;17.33;13.70;;;6.60;99.90;;;;;;5073202;28;20201;-64
2021/03/03 00:36:23;;;;;;;18.43;13.80;;;6.60;99.90;;;;;;5073149;28;20232;-64
2021/03/03 00:38:48;;;;;;;22.47;14.63;;;6.60;99.90;;;;;;5073175;28;20684;-64
2021/03/03 00:41:14;;;;;;;23.50;14.23;;;6.60;99.90;;;;;;5073680;28;20206;-64
2021/03/03 00:43:39;;;;;;;17.43;14.77;;;6.60;99.90;;;;;;5073170;28;20187;-64
2021/03/03 00:46:05;;;;;;;16.87;14.73;;;6.60;99.90;;;;;;5073007;28;20237;-64
2021/03/03 00:48:31;;;;;;;20.13;15.83;;;6.60;99.90;;;;;;5072984;28;20189;-64
2021/03/03 00:50:56;;;;;;;20.90;13.40;;;6.50;99.90;;;;;;5072999;28;20392;-63
2021/03/03 00:53:22;;;;;;;21.80;14.20;;;6.60;99.90;;;;;;5072872;28;20516;-64
2021/03/03 00:55:51;;;;;;;19.90;12.97;;;6.50;99.90;;;;;;5073306;28;20183;-64
2021/03/03 00:58:18;;;;;;;20.00;15.20;;;6.60;99.90;;;;;;5073923;28;20184;-64
2021/03/03 01:00:44;;;;;;;20.73;15.03;;;6.50;99.90;;;;;;5073090;28;20455;-64
2021/03/03 01:03:09;;;;;;;22.43;14.70;;;6.50;99.90;;;;;;5071813;28;20407;-64
2021/03/03 01:05:35;;;;;;;20.17;15.87;;;6.50;99.90;;;;;;5073126;28;20520;-64
2021/03/03 01:08:00;;;;;;;19.23;14.77;;;6.60;99.90;;;;;;5072578;28;20319;-64
2021/03/03 01:10:26;;;;;;;19.47;14.80;;;6.50;99.90;;;;;;5071807;28;20164;-64
2021/03/03 01:12:51;;;;;;;18.63;13.63;;;6.60;99.90;;;;;;5072915;28;20623;-64
2021/03/03 01:15:17;;;;;;;21.00;14.63;;;6.60;99.90;;;;;;5073527;28;20623;-64
2021/03/03 01:17:43;;;;;;;20.47;13.93;;;6.50;99.90;;;;;;5072684;28;20160;-64
2021/03/03 01:20:10;;;;;;;17.33;14.43;;;6.50;99.90;;;;;;5072806;28;20169;-64
2021/03/03 01:22:36;;;;;;;20.13;15.10;;;6.50;99.90;;;;;;5072982;28;20156;-64
2021/03/03 01:25:02;;;;;;;17.70;13.53;;;6.50;99.90;;;;;;5072670;28;20418;-64
2021/03/03 01:27:27;;;;;;;20.40;15.33;;;6.50;99.90;;;;;;5071557;28;20185;-64
2021/03/03 01:29:53;;;;;;;21.97;15.37;;;6.50;99.90;;;;;;5074959;28;20395;-64
2021/03/03 01:32:19;;;;;;;20.20;14.63;;;6.50;99.90;;;;;;5088848;28;20669;-64
2021/03/03 01:34:44;;;;;;;16.70;14.47;;;6.50;99.90;;;;;;5097280;28;20194;-64
2021/03/03 01:37:10;;;;;;;19.47;14.50;;;6.50;99.90;;;;;;5096997;28;20259;-64
2021/03/03 01:39:35;;;;;;;21.90;14.20;;;6.50;99.90;;;;;;5096920;28;20629;-64
2021/03/03 01:42:01;;;;;;;20.67;16.37;;;6.50;99.90;;;;;;5096922;28;20257;-64
2021/03/03 01:44:26;;;;;;;19.50;14.00;;;6.50;99.90;;;;;;5096701;28;20178;-64
2021/03/03 01:46:52;;;;;;;16.40;13.47;;;6.50;99.90;;;;;;5096767;28;20233;-64
2021/03/03 01:49:17;;;;;;;16.00;12.77;;;6.40;99.90;;;;;;5095951;28;20536;-64
2021/03/03 01:51:43;;;;;;;21.03;14.93;;;6.50;99.90;;;;;;5097039;28;20686;-64
2021/03/03 01:54:08;;;;;;;22.93;14.63;;;6.40;99.90;;;;;;5096709;28;20156;-64
2021/03/03 01:56:34;;;;;;;21.00;15.90;;;6.50;99.90;;;;;;5096526;28;20156;-64
2021/03/03 01:59:00;;;;;;;21.13;14.80;;;6.50;99.90;;;;;;5096487;28;20215;-64
2021/03/03 02:01:26;;;;;;;22.17;14.30;;;6.40;99.90;;;;;;5096567;28;20423;-64
2021/03/03 02:03:51;;;;;;;22.67;15.27;;;6.50;99.90;;;;;;5096465;28;20160;-64
2021/03/03 02:09:32;;;;;;;18.70;14.40;;;6.40;99.90;;;;;;5110798;27;21024;-64
2021/03/03 02:12:04;;;;;;;21.03;13.80;;;6.40;99.90;;;;;;5110070;28;20416;-64
2021/03/03 02:14:32;;;;;;;19.27;14.10;;;6.40;99.90;;;;;;5109685;28;20429;-64
2021/03/03 02:16:59;;;;;;;18.77;14.20;;;6.40;99.90;;;;;;5110985;28;20456;-64
2021/03/03 02:19:29;;;;;;;18.60;15.50;;;6.40;99.90;;;;;;5110648;28;20481;-64
2021/03/03 02:22:25;;;;;;;21.80;14.87;;;6.40;99.90;;;;;;5109715;28;20960;-64
2021/03/03 02:25:02;;;;;;;22.83;16.10;;;6.40;99.90;;;;;;5109673;28;20383;-64
2021/03/03 02:27:29;;;;;;;21.23;16.40;;;6.40;99.90;;;;;;5110437;28;20447;-64
2021/03/03 02:29:55;;;;;;;18.97;14.80;;;6.30;99.90;;;;;;5110856;28;20471;-64
2021/03/03 02:32:21;;;;;;;17.57;13.50;;;6.30;99.90;;;;;;5110554;28;20883;-64
2021/03/03 02:34:47;;;;;;;15.50;13.70;;;6.30;99.90;;;;;;5110373;28;20394;-64
2021/03/03 02:37:14;;;;;;;17.70;14.87;;;6.30;99.90;;;;;;5109281;28;20389;-64
2021/03/03 02:39:40;;;;;;;21.07;16.03;;;6.30;99.90;;;;;;5109326;28;20419;-64
2021/03/03 02:42:07;;;;;;;22.53;15.00;;;6.30;99.90;;;;;;5110168;28;20492;-64
2021/03/03 02:44:33;;;;;;;23.87;16.27;;;6.30;99.90;;;;;;5110355;28;20168;-64
2021/03/03 02:46:59;;;;;;;19.10;16.40;;;6.20;99.90;;;;;;5109745;28;21012;-64
2021/03/03 02:49:25;;;;;;;18.80;15.20;;;6.20;99.90;;;;;;5110087;28;20160;-64
2021/03/03 02:51:51;;;;;;;19.40;15.83;;;6.20;99.90;;;;;;5109192;28;20391;-64
2021/03/03 02:54:17;;;;;;;19.13;14.47;;;6.20;99.90;;;;;;5109000;28;20760;-64
2021/03/03 02:56:43;;;;;;;17.50;14.60;;;6.20;99.90;;;;;;5109172;28;20171;-64
2021/03/03 02:59:28;;;;;;;21.37;15.50;;;6.20;99.90;;;;;;5110086;28;20162;-64
2021/03/03 03:01:55;;;;;;;20.67;15.80;;;6.20;99.90;;;;;;5109782;28;20480;-64
2021/03/03 03:04:23;;;;;;;19.47;14.57;;;6.20;99.90;;;;;;5109738;28;20491;-64
2021/03/03 03:06:49;;;;;;;18.97;15.90;;;6.10;99.90;;;;;;5110330;28;20461;-65
2021/03/03 03:09:17;;;;;;;19.57;14.27;;;6.10;99.90;;;;;;5108624;28;20395;-65
2021/03/03 03:11:50;;;;;;;21.80;16.17;;;6.10;99.90;;;;;;5109742;28;20392;-65
2021/03/03 03:14:20;;;;;;;19.30;15.20;;;6.10;99.90;;;;;;5108856;28;20421;-65
2021/03/03 03:16:47;;;;;;;22.90;17.23;;;6.10;99.90;;;;;;5109523;28;20909;-66
2021/03/03 03:19:16;;;;;;;22.43;16.63;;;6.00;99.90;;;;;;5101861;28;20385;-65
2021/03/03 03:21:45;;;;;;;19.43;15.97;;;6.00;99.90;;;;;;5079536;28;20904;-65
2021/03/03 03:24:14;;;;;;;22.77;14.70;;;6.00;99.90;;;;;;5075517;28;20446;-65
2021/03/03 03:26:40;;;;;;;21.67;16.23;;;6.00;99.90;;;;;;5074563;28;20391;-66
2021/03/03 03:29:07;;;;;;;20.30;14.90;;;6.00;99.90;;;;;;5075521;28;20895;-65
2021/03/03 03:31:34;;;;;;;22.33;14.57;;;6.00;99.90;;;;;;5075995;28;20177;-65
2021/03/03 03:34:00;;;;;;;20.60;14.17;;;6.00;99.90;;;;;;5075486;28;20866;-65
2021/03/03 03:36:27;;;;;;;20.57;14.90;;;6.00;99.90;;;;;;5075360;28;20409;-65
2021/03/03 03:38:53;;;;;;;18.80;16.33;;;6.00;99.90;;;;;;5075400;28;20449;-65
2021/03/03 03:41:20;;;;;;;16.37;13.33;;;6.00;99.90;;;;;;5075245;28;20398;-65
2021/03/03 03:43:46;;;;;;;19.87;14.73;;;5.90;99.90;;;;;;5075145;28;20668;-65
2021/03/03 03:46:12;;;;;;;20.27;15.90;;;6.00;99.90;;;;;;5075067;28;20426;-65
2021/03/03 03:48:37;;;;;;;24.67;15.90;;;5.90;99.90;;;;;;5075616;28;20823;-65
2021/03/03 03:51:04;;;;;;;24.63;15.10;;;5.90;99.90;;;;;;5075105;28;20483;-65
2021/03/03 03:53:31;;;;;;;18.30;15.37;;;6.00;99.90;;;;;;5075226;28;20253;-65
2021/03/03 03:55:57;;;;;;;22.00;16.13;;;5.90;99.90;;;;;;5075248;28;20395;-65
2021/03/03 03:58:22;;;;;;;21.47;15.93;;;6.00;99.90;;;;;;5074908;28;20406;-65
2021/03/03 04:00:48;;;;;;;20.47;15.20;;;5.90;99.90;;;;;;5075409;28;20214;-64
2021/03/03 04:03:14;;;;;;;18.77;14.33;;;5.90;99.90;;;;;;5074823;28;20535;-64
2021/03/03 04:05:39;;;;;;;21.07;14.20;;;5.90;99.90;;;;;;5075545;28;20212;-64
2021/03/03 04:08:05;;;;;;;19.40;13.90;;;5.90;99.90;;;;;;5074714;28;20216;-64
2021/03/03 04:10:31;;;;;;;20.50;15.43;;;5.90;99.90;;;;;;5074606;28;20162;-64
2021/03/03 04:12:56;;;;;;;20.23;14.93;;;5.90;99.90;;;;;;5074746;28;20165;-64
2021/03/03 04:15:24;;;;;;;22.83;14.03;;;5.90;99.90;;;;;;5074840;28;20173;-64
2021/03/03 04:17:50;;;;;;;24.23;15.23;;;5.90;99.90;;;;;;5074728;28;20165;-64
2021/03/03 04:20:16;;;;;;;21.03;14.00;;;5.90;99.90;;;;;;5074559;28;20426;-64
2021/03/03 04:22:42;;;;;;;25.70;15.87;;;5.90;99.90;;;;;;5089976;28;20414;-64
2021/03/03 04:25:11;;;;;;;19.57;14.83;;;5.90;99.90;;;;;;5094884;28;20926;-64
2021/03/03 04:27:37;;;;;;;22.17;14.47;;;5.90;99.90;;;;;;5093638;28;20443;-64
2021/03/03 04:30:09;;;;;;;19.67;16.17;;;5.90;99.90;;;;;;5092780;28;20400;-64
2021/03/03 04:32:34;;;;;;;26.20;15.13;;;5.90;99.90;;;;;;5094264;28;20887;-64
2021/03/03 04:35:00;;;;;;;20.33;14.10;;;5.90;99.90;;;;;;5094507;28;20433;-64
2021/03/03 04:37:26;;;;;;;17.73;14.33;;;5.90;99.90;;;;;;5093230;28;20688;-64
2021/03/03 04:39:52;;;;;;;23.13;15.60;;;5.90;99.90;;;;;;5093416;28;20427;-64
2021/03/03 04:42:17;;;;;;;18.50;15.40;;;5.90;99.90;;;;;;5094258;28;20407;-64
2021/03/03 04:44:43;;;;;;;20.07;13.73;;;5.90;99.90;;;;;;5094318;28;20166;-64
2021/03/03 04:47:09;;;;;;;19.93;14.63;;;5.90;99.90;;;;;;5094475;28;20256;-64
2021/03/03 04:49:34;;;;;;;22.67;16.40;;;5.90;99.90;;;;;;5094108;28;20184;-64
2021/03/03 04:52:00;;;;;;;18.40;14.33;;;5.90;99.90;;;;;;5094111;28;20162;-64
2021/03/03 04:54:25;;;;;;;20.37;15.07;;;6.00;99.90;;;;;;5094281;28;20278;-64
2021/03/03 04:56:51;;;;;;;18.10;13.30;;;5.90;99.90;;;;;;5093135;28;20185;-64
2021/03/03 04:59:16;;;;;;;21.47;14.27;;;6.00;99.90;;;;;;5094137;28;20163;-64
2021/03/03 05:01:42;;;;;;;19.50;15.47;;;5.90;99.90;;;;;;5094109;28;20157;-64
2021/03/03 05:04:08;;;;;;;21.27;14.43;;;5.90;99.90;;;;;;5093960;28;20158;-64
2021/03/03 05:06:33;;;;;;;22.57;14.93;;;5.90;99.90;;;;;;5093897;28;20237;-64
2021/03/03 05:08:58;;;;;;;28.20;18.20;;;6.00;99.90;;;;;;5093771;28;20211;-65
2021/03/03 05:11:24;;;;;;;24.87;14.60;;;5.90;99.90;;;;;;5093754;28;20160;-64
2021/03/03 05:13:50;;;;;;;21.27;15.23;;;5.90;99.90;;;;;;5092964;28;20179;-64
2021/03/03 05:16:15;;;;;;;20.13;16.63;;;5.90;99.90;;;;;;5093797;28;20386;-64
2021/03/03 05:18:41;;;;;;;19.63;14.90;;;5.90;99.90;;;;;;5093825;28;20644;-64
2021/03/03 05:21:07;;;;;;;22.20;16.30;;;5.90;99.90;;;;;;5082295;28;20582;-64
2021/03/03 05:23:34;;;;;;;20.63;14.30;;;5.90;99.90;;;;;;5072168;28;20169;-64
2021/03/03 05:26:00;;;;;;;20.20;15.87;;;5.90;99.90;;;;;;5073610;28;20171;-64
2021/03/03 05:28:27;;;;;;;19.47;15.63;;;5.90;99.90;;;;;;5073472;28;20889;-64
2021/03/03 05:30:53;;;;;;;21.30;15.57;;;5.90;99.90;;;;;;5073964;28;20936;-64
2021/03/03 05:33:26;;;;;;;20.70;15.07;;;5.90;99.90;;;;;;5073221;28;20394;-64
2021/03/03 05:35:54;;;;;;;21.07;15.73;;;5.90;99.90;;;;;;5073307;28;20179;-64
2021/03/03 05:38:20;;;;;;;27.10;16.70;;;5.90;99.90;;;;;;5073148;28;20398;-64
2021/03/03 05:40:47;;;;;;;21.60;15.10;;;5.90;99.90;;;;;;5073198;28;20398;-64
2021/03/03 05:43:13;;;;;;;23.87;15.43;;;5.90;99.90;;;;;;5072959;28;20162;-64
2021/03/03 05:45:42;;;;;;;22.43;16.87;;;5.90;99.90;;;;;;5072040;28;21003;-64
2021/03/03 05:51:07;;;;;;;20.57;15.17;;;5.90;99.90;;;;;;5131297;27;20549;-64
2021/03/03 05:53:34;;;;;;;19.33;15.33;;;5.90;99.90;;;;;;5130134;28;20466;-64
2021/03/03 05:56:02;;;;;;;17.83;14.30;;;5.90;99.90;;;;;;5130291;28;20810;-64
2021/03/03 05:58:30;;;;;;;21.73;15.43;;;5.90;99.90;;;;;;5131274;27;20384;-64
2021/03/03 06:00:56;;;;;;;21.00;14.47;;;5.90;99.90;;;;;;5131168;27;20432;-64
2021/03/03 06:03:24;;;;;;;26.13;15.43;;;5.90;99.90;;;;;;5126801;27;20432;-65
2021/03/03 06:05:50;;;;;;;18.30;14.23;;;5.90;99.90;;;;;;5110927;28;20391;-64
2021/03/03 06:08:17;;;;;;;17.80;15.30;;;5.90;99.90;;;;;;5110932;28;20897;-64
2021/03/03 06:10:43;;;;;;;21.43;16.03;;;5.90;99.90;;;;;;5110377;27;20215;-64
2021/03/03 06:13:09;;;;;;;21.23;14.57;;;5.90;99.90;;;;;;5109735;28;20385;-64
2021/03/03 06:15:34;;;;;;;20.37;14.70;;;5.90;99.90;;;;;;5109494;28;20915;-64
2021/03/03 06:18:04;;;;;;;23.13;15.87;;;5.90;99.90;;;;;;5110351;28;20392;-64
2021/03/03 06:20:31;;;;;;;23.50;14.97;;;5.90;99.90;;;;;;5109946;28;20176;-64
2021/03/03 06:23:13;;;;;;;21.43;15.20;;;5.90;99.90;;;;;;5110474;28;20452;-64
2021/03/03 06:25:39;;;;;;;21.93;15.17;;;5.90;99.90;;;;;;5109169;28;20402;-64
2021/03/03 06:28:05;;;;;;;23.37;15.00;;;6.00;99.90;;;;;;5110449;28;20402;-64
2021/03/03 06:30:31;;;;;;;27.13;16.47;;;6.00;99.90;;;;;;5110067;28;20442;-64
2021/03/03 06:33:00;;;;;;;21.53;15.63;;;6.00;99.90;;;;;;5110357;28;20180;-64
2021/03/03 06:35:44;;;;;;;20.93;16.53;;;6.00;99.90;;;;;;5109143;28;20611;-65
2021/03/03 06:38:13;;;;;;;20.20;15.13;;;6.00;99.90;;;;;;5110869;28;20934;-65
2021/03/03 06:40:57;;;;;;;27.37;16.90;;;6.00;99.90;;;;;;5110258;28;20396;-64
2021/03/03 06:46:17;;;;;;;28.93;16.87;;;6.00;99.90;;;;;;5110885;27;21010;-64
2021/03/03 06:48:44;;;;;;;23.03;16.40;;;6.00;99.90;;;;;;5093285;28;20930;-65
2021/03/03 06:54:17;;;;;;;25.80;16.57;;;6.10;99.90;;;;;;5129290;27;20508;-64
2021/03/03 06:56:44;;;;;;;17.23;14.13;;;6.10;99.90;;;;;;5110969;28;20392;-64
2021/03/03 07:04:29;;;;;;;21.10;16.67;;;6.10;99.90;;;;;;5111003;27;20510;-64
2021/03/03 07:06:57;;;;;;;22.30;17.03;;;6.30;99.90;;;;;;5111967;28;20805;-64
2021/03/03 07:09:24;;;;;;;23.83;17.00;;;6.30;99.90;;;;;;5109789;28;20883;-65
2021/03/03 07:11:50;;;;;;;26.60;18.60;;;6.40;99.90;;;;;;5102513;28;20422;-64
2021/03/03 07:17:14;;;;;;;25.10;17.80;;;6.40;99.90;;;;;;5131615;27;20509;-65
2021/03/03 07:22:23;;;;;;;30.67;18.23;;;6.60;99.90;;;;;;5131464;27;20555;-64
2021/03/03 07:24:55;;;;;;;22.90;15.90;;;6.70;99.90;;;;;;5131705;27;20391;-65
2021/03/03 07:27:21;;;;;;;22.57;15.50;;;6.70;99.90;;;;;;5131591;27;20400;-64
2021/03/03 07:29:49;;;;;;;21.53;16.10;;;6.70;99.90;;;;;;5114866;27;20399;-64
2021/03/03 07:32:16;;;;;;;25.37;16.20;;;6.80;99.90;;;;;;5109693;28;20482;-64
2021/03/03 07:34:41;;;;;;;23.43;16.30;;;6.80;99.90;;;;;;5110761;28;20884;-64
2021/03/03 07:37:09;;;;;;;26.03;15.80;;;6.80;99.90;;;;;;5110767;28;20437;-64
2021/03/03 07:39:40;;;;;;;28.87;17.87;;;6.80;99.90;;;;;;5109497;28;20167;-64
2021/03/03 07:42:12;;;;;;;25.00;16.43;;;6.80;99.90;;;;;;5109577;28;20473;-64
2021/03/03 07:44:42;;;;;;;30.03;18.00;;;6.80;99.90;;;;;;5110790;28;20762;-64
2021/03/03 07:47:09;;;;;;;26.10;16.20;;;6.90;99.90;;;;;;5109844;28;20935;-65
2021/03/03 07:49:35;;;;;;;20.27;15.53;;;6.90;99.90;;;;;;5110360;28;20398;-67
2021/03/03 07:52:01;;;;;;;29.13;17.60;;;7.00;99.90;;;;;;5110824;28;20409;-64
2021/03/03 07:54:28;;;;;;;23.67;17.53;;;7.00;99.90;;;;;;5110179;28;20404;-64
2021/03/03 07:56:55;;;;;;;27.40;16.57;;;7.10;99.90;;;;;;5110163;28;20438;-64
2021/03/03 07:59:21;;;;;;;24.73;16.70;;;7.20;99.90;;;;;;5119094;28;20428;-64
2021/03/03 08:01:50;;;;;;;25.20;17.67;;;7.20;99.90;;;;;;5121537;28;20453;-64
2021/03/03 08:04:35;;;;;;;24.93;17.20;;;7.30;99.90;;;;;;5125969;28;20489;-65
2021/03/03 08:07:24;;;;;;;28.50;17.37;;;7.40;99.90;;;;;;5109097;28;20481;-64
2021/03/03 08:10:18;;;;;;;26.73;17.93;;;7.60;99.90;;;;;;5108810;28;20404;-64
2021/03/03 08:20:52;;;;;;;30.67;17.53;;;7.80;99.90;;;;;;5093600;27;20521;-64
2021/03/03 08:29:10;;;;;;;32.20;18.90;;;8.60;99.90;;;;;;5110717;27;21087;-65
2021/03/03 08:31:39;;;;;;;27.50;17.53;;;9.10;99.90;;;;;;5109436;28;20392;-64
2021/03/03 08:34:05;;;;;;;31.63;18.20;;;9.30;99.90;;;;;;5110658;28;20386;-64
2021/03/03 08:41:42;;;;;;;43.03;18.50;;;9.50;99.90;;;;;;5172797;27;20874;-64
2021/03/03 08:49:42;;;;;;;31.13;18.53;;;9.80;99.90;;;;;;5090533;27;20880;-64
2021/03/03 08:52:10;;;;;;;27.00;18.13;;;10.00;99.90;;;;;;5090497;28;20384;-64
2021/03/03 08:54:39;;;;;;;36.87;20.07;;;10.00;99.90;;;;;;5075465;28;20226;-64
2021/03/03 08:57:05;;;;;;;33.70;18.53;;;10.20;99.90;;;;;;5068861;28;20432;-64
2021/03/03 08:59:46;;;;;;;29.77;19.23;;;10.30;99.90;;;;;;5079790;28;20414;-64
2021/03/03 09:02:15;;;;;;;32.90;18.23;;;10.40;99.90;;;;;;5084459;28;20185;-65
2021/03/03 09:07:29;;;;;;;26.40;17.93;;;10.50;99.90;;;;;;5095976;27;20518;-65
2021/03/03 09:09:57;;;;;;;29.67;17.37;;;10.70;99.90;;;;;;5088046;28;20491;-65
2021/03/03 09:12:25;;;;;;;27.60;18.10;;;10.80;99.90;;;;;;5068857;28;20389;-65
2021/03/03 09:14:53;;;;;;;25.53;17.53;;;10.90;99.90;;;;;;5080341;28;20435;-65
2021/03/03 09:17:26;;;;;;;23.70;16.40;;;10.90;99.90;;;;;;5090700;28;20420;-65
2021/03/03 09:19:53;;;;;;;32.10;17.77;;;10.90;99.90;;;;;;5080508;28;20436;-65
2021/03/03 09:24:56;;;;;;;28.67;18.87;;;10.90;99.90;;;;;;5110583;27;20849;-64
2021/03/03 09:27:23;;;;;;;27.70;17.97;;;10.90;99.90;;;;;;5105296;28;20423;-66
2021/03/03 09:29:50;;;;;;;23.47;17.03;;;10.90;99.90;;;;;;5090583;28;20412;-64
2021/03/03 09:32:22;;;;;;;30.10;16.37;;;10.90;99.90;;;;;;5110339;28;20411;-64
2021/03/03 09:37:24;;;;;;;25.33;16.83;;;10.90;99.90;;;;;;5110801;27;20516;-66
2021/03/03 09:39:53;;;;;;;24.60;16.83;;;10.90;99.90;;;;;;5110614;28;20389;-64
2021/03/03 09:42:19;;;;;;;31.27;17.50;;;10.90;99.90;;;;;;5109691;28;20421;-64
2021/03/03 09:44:56;;;;;;;24.17;17.30;;;11.00;99.90;;;;;;5103205;28;20444;-65
2021/03/03 09:47:39;;;;;;;26.00;16.57;;;11.00;99.90;;;;;;5090439;28;20190;-65
2021/03/03 09:50:09;;;;;;;21.97;15.20;;;11.00;99.90;;;;;;5089070;28;20389;-64
2021/03/03 09:52:38;;;;;;;24.00;15.77;;;11.10;99.90;;;;;;5088858;28;20385;-65
2021/03/03 09:55:08;;;;;;;16.63;13.67;;;11.20;99.90;;;;;;5088762;28;20428;-65
2021/03/03 09:57:34;;;;;;;26.90;14.20;;;11.20;99.90;;;;;;5089248;28;20393;-65
2021/03/03 10:00:00;;;;;;;21.27;15.20;;;11.30;99.90;;;;;;5088965;28;20451;-65
2021/03/03 10:02:28;;;;;;;28.43;17.20;;;11.40;99.90;;;;;;5090257;28;20202;-65
2021/03/03 10:04:55;;;;;;;26.27;16.60;;;11.40;99.90;;;;;;5088754;28;20398;-65
2021/03/03 10:07:24;;;;;;;28.53;16.17;;;11.50;99.90;;;;;;5089851;28;20416;-65
2021/03/03 10:09:53;;;;;;;26.27;16.30;;;11.50;99.90;;;;;;5088504;28;20405;-65
2021/03/03 10:12:22;;;;;;;25.87;16.50;;;11.50;99.90;;;;;;5089940;28;20400;-65
2021/03/03 10:15:10;;;;;;;28.53;15.93;;;11.50;99.90;;;;;;5089687;28;20771;-65
2021/03/03 10:20:49;;;;;;;21.53;15.47;;;11.60;99.90;;;;;;5050507;28;20576;-64
2021/03/03 10:28:29;;;;;;;26.53;19.17;;;11.60;99.90;;;;;;5131336;27;20549;-64
2021/03/03 10:30:57;;;;;;;30.30;18.20;;;11.70;99.90;;;;;;5129940;28;20399;-64
2021/03/03 10:36:04;;;;;;;28.60;19.07;;;11.70;99.90;;;;;;5120744;27;20872;-65
2021/03/03 10:38:30;;;;;;;37.20;21.80;;;11.80;99.90;;;;;;5111079;28;20380;-65
2021/03/03 10:40:58;;;;;;;33.23;21.20;;;11.80;99.90;;;;;;5109469;28;20508;-65
2021/03/03 10:43:26;;;;;;;31.03;20.40;;;11.80;99.90;;;;;;5110785;28;20777;-65
2021/03/03 10:46:12;;;;;;;26.43;18.60;;;11.90;99.90;;;;;;5109761;28;20958;-65
2021/03/03 10:48:38;;;;;;;28.17;17.80;;;11.90;99.90;;;;;;5109852;28;20492;-65
2021/03/03 10:51:05;;;;;;;24.40;16.50;;;11.90;99.90;;;;;;5109499;28;20393;-65
2021/03/03 10:53:54;;;;;;;25.17;19.10;;;11.90;99.90;;;;;;5110400;28;20950;-65
2021/03/03 10:56:29;;;;;;;28.87;19.33;;;12.00;99.90;;;;;;5107926;28;20925;-65
2021/03/03 10:58:59;;;;;;;29.90;20.60;;;12.00;99.90;;;;;;5110240;28;20423;-65
2021/03/03 11:01:39;;;;;;;35.93;23.07;;;12.00;99.90;;;;;;5108742;28;20475;-66
2021/03/03 11:04:05;;;;;;;37.27;26.40;;;12.00;99.90;;;;;;5110142;28;20414;-65
2021/03/03 11:06:35;;;;;;;37.33;24.47;;;12.10;99.90;;;;;;5108493;28;20388;-65
2021/03/03 11:09:04;;;;;;;30.40;23.23;;;12.10;99.90;;;;;;5108678;28;20415;-65
2021/03/03 11:11:30;;;;;;;34.17;24.60;;;12.10;99.90;;;;;;5110384;28;20403;-65
2021/03/03 11:13:55;;;;;;;31.63;24.40;;;12.10;99.90;;;;;;5109870;28;20448;-65
2021/03/03 11:16:21;;;;;;;38.13;26.03;;;12.10;99.90;;;;;;5110364;28;20151;-65
2021/03/03 11:18:47;;;;;;;33.70;25.20;;;12.10;99.90;;;;;;5108018;28;20179;-65
2021/03/03 11:21:12;;;;;;;33.80;25.50;;;12.10;99.90;;;;;;5109211;28;20503;-65
2021/03/03 11:23:38;;;;;;;36.17;25.50;;;12.10;99.90;;;;;;5108503;28;20549;-65
2021/03/03 11:26:04;;;;;;;37.37;26.60;;;12.10;99.90;;;;;;5109747;28;20211;-65
2021/03/03 11:28:29;;;;;;;38.23;26.20;;;12.10;99.90;;;;;;5109664;28;20564;-65
2021/03/03 11:30:55;;;;;;;37.07;25.50;;;12.20;99.90;;;;;;5109674;28;20238;-65
2021/03/03 11:33:21;;;;;;;32.90;24.60;;;12.20;99.90;;;;;;5109460;28;20154;-65
2021/03/03 11:35:47;;;;;;;31.20;23.47;;;12.20;99.90;;;;;;5109269;28;20202;-65
2021/03/03 11:38:13;;;;;;;40.17;25.03;;;12.20;99.90;;;;;;5108364;28;20162;-65
2021/03/03 11:40:38;;;;;;;34.70;24.07;;;12.30;99.90;;;;;;5109591;28;20158;-65
2021/03/03 11:43:04;;;;;;;39.33;23.97;;;12.30;99.90;;;;;;5109325;28;20479;-65
2021/03/03 11:45:30;;;;;;;32.50;22.90;;;12.30;99.90;;;;;;5105671;28;20331;-65
2021/03/03 11:47:56;;;;;;;31.33;22.60;;;12.40;99.90;;;;;;5095757;28;20408;-65
2021/03/03 11:50:22;;;;;;;35.63;25.90;;;12.40;99.90;;;;;;5095776;28;20155;-65
2021/03/03 11:52:47;;;;;;;30.17;22.73;;;12.40;99.90;;;;;;5095759;28;20803;-65
2021/03/03 11:55:13;;;;;;;34.17;24.30;;;12.40;99.90;;;;;;5094868;28;20680;-65
2021/03/03 11:57:38;;;;;;;32.53;24.30;;;12.40;99.90;;;;;;5095860;28;20185;-65
2021/03/03 12:00:08;;;;;;;35.23;24.40;;;12.40;99.90;;;;;;5093659;28;20181;-66
2021/03/03 12:02:33;;;;;;;35.83;24.37;;;12.40;99.90;;;;;;5095745;28;20185;-65
2021/03/03 12:04:59;;;;;;;31.13;23.57;;;12.40;99.90;;;;;;5095465;28;20496;-65
2021/03/03 12:07:24;;;;;;;32.30;22.77;;;12.40;99.90;;;;;;5095034;28;20216;-65
2021/03/03 12:09:50;;;;;;;30.87;20.43;;;12.50;99.90;;;;;;5095397;28;20186;-65
2021/03/03 12:12:15;;;;;;;31.10;22.20;;;12.50;99.90;;;;;;5095567;28;20586;-65
2021/03/03 12:14:41;;;;;;;34.30;20.57;;;12.50;99.90;;;;;;5095595;28;20222;-65
2021/03/03 12:17:07;;;;;;;30.93;20.60;;;12.50;99.90;;;;;;5094955;28;20182;-65
2021/03/03 12:19:32;;;;;;;30.67;21.20;;;12.40;99.90;;;;;;5094396;28;20220;-65
2021/03/03 12:21:58;;;;;;;42.83;23.00;;;12.40;99.90;;;;;;5095017;28;20190;-65
2021/03/03 12:24:24;;;;;;;33.83;20.87;;;12.50;99.90;;;;;;5095359;28;20276;-65
2021/03/03 12:26:50;;;;;;;29.40;20.40;;;12.50;99.90;;;;;;5095290;28;20999;-65
2021/03/03 12:29:16;;;;;;;43.13;21.53;;;12.50;99.90;;;;;;5095351;28;20631;-66
2021/03/03 12:31:41;;;;;;;31.23;20.07;;;12.50;99.90;;;;;;5095233;28;20389;-65
2021/03/03 12:34:07;;;;;;;31.00;21.00;;;12.50;99.90;;;;;;5094638;28;20211;-65
2021/03/03 12:36:33;;;;;;;31.60;19.10;;;12.50;99.90;;;;;;5095254;28;20151;-65
2021/03/03 12:38:58;;;;;;;29.40;19.13;;;12.50;99.90;;;;;;5093574;28;20248;-65
2021/03/03 12:41:24;;;;;;;25.40;19.63;;;12.50;99.90;;;;;;5094749;28;20571;-65
2021/03/03 12:43:50;;;;;;;32.87;19.33;;;12.50;99.90;;;;;;5094736;28;20527;-65
2021/03/03 12:46:15;;;;;;;30.13;19.37;;;12.50;99.90;;;;;;5094617;28;20559;-65
2021/03/03 12:48:41;;;;;;;27.20;19.63;;;12.50;99.90;;;;;;5094630;28;20389;-65
2021/03/03 12:51:07;;;;;;;34.00;20.73;;;12.50;99.90;;;;;;5094760;28;20183;-65
2021/03/03 12:53:32;;;;;;;25.37;19.13;;;12.50;99.90;;;;;;5094625;28;20177;-65
2021/03/03 12:55:58;;;;;;;27.43;19.10;;;12.50;99.90;;;;;;5094374;28;20232;-65
2021/03/03 12:58:23;;;;;;;30.73;19.70;;;12.50;99.90;;;;;;5093344;28;20182;-65
2021/03/03 13:00:49;;;;;;;23.73;18.87;;;12.50;99.90;;;;;;5094867;28;20185;-65
2021/03/03 13:03:15;;;;;;;35.67;19.37;;;12.40;99.90;;;;;;5094459;28;20388;-65
2021/03/03 13:05:40;;;;;;;28.40;19.47;;;12.40;99.90;;;;;;5094308;28;20159;-65
2021/03/03 13:08:06;;;;;;;32.70;21.57;;;12.40;99.90;;;;;;5093926;28;20235;-65
2021/03/03 13:10:32;;;;;;;28.20;18.20;;;12.40;99.90;;;;;;5094351;28;20170;-65
2021/03/03 13:12:57;;;;;;;31.20;18.33;;;12.40;99.90;;;;;;5094324;28;20163;-65
2021/03/03 13:15:23;;;;;;;29.70;18.77;;;12.30;99.90;;;;;;5093978;28;20186;-65
2021/03/03 13:17:48;;;;;;;25.80;19.53;;;12.40;99.90;;;;;;5094070;28;20205;-65
2021/03/03 13:20:14;;;;;;;38.20;20.77;;;12.30;99.90;;;;;;5094597;28;20627;-65
2021/03/03 13:22:40;;;;;;;29.97;21.07;;;12.40;99.90;;;;;;5093788;28;20159;-65
2021/03/03 13:25:06;;;;;;;30.80;21.37;;;12.40;99.90;;;;;;5093883;28;20162;-65
2021/03/03 13:27:32;;;;;;;25.07;18.50;;;12.40;99.90;;;;;;5093710;28;20526;-65
2021/03/03 13:29:58;;;;;;;31.10;20.97;;;12.40;99.90;;;;;;5093869;28;20939;-65
2021/03/03 13:32:24;;;;;;;27.13;18.87;;;12.50;99.90;;;;;;5093102;28;20167;-65
2021/03/03 13:34:49;;;;;;;30.43;20.00;;;12.50;99.90;;;;;;5092651;28;20460;-65
2021/03/03 13:37:15;;;;;;;26.23;19.23;;;12.50;99.90;;;;;;5093884;28;20151;-65
2021/03/03 13:39:41;;;;;;;36.67;19.87;;;12.40;99.90;;;;;;5094131;28;20544;-65
2021/03/03 13:42:07;;;;;;;27.20;18.20;;;12.40;99.90;;;;;;5092467;28;20182;-65